Time;durP1;ratioP1;P1;durP2;ratioP2;P2;SDS_P1;SDS_P2;PMS_P1;PMS_P2;Temp;Humidity;BMP_temperature;BMP_pressure;BME280_temperature;BME280_humidity;BME280_pressure;Samples;Min_cycle;Max_cycle;Signal;HPM_P1;HPM_P2
2022/05/23 00:02:16;;;;;;;0.00;0.00;;;;;;;;;;5042910;28;20196;-70
2022/05/23 00:04:44;;;;;;;0.00;0.00;;;13.90;99.90;;;;;;5042885;28;20203;-70
2022/05/23 00:07:14;;;;;;;0.00;0.00;;;13.50;99.90;;;;;;5043385;28;20229;-71
2022/05/23 00:09:41;;;;;;;0.00;0.00;;;13.50;99.90;;;;;;5038918;28;20284;-70
2022/05/23 00:12:09;;;;;;;0.00;0.00;;;13.50;99.90;;;;;;5039885;28;20231;-70
2022/05/23 00:14:36;;;;;;;0.00;0.00;;;13.50;99.90;;;;;;5045957;28;20249;-70
2022/05/23 00:17:04;;;;;;;0.00;0.00;;;13.50;99.90;;;;;;5046922;28;20210;-70
2022/05/23 00:19:31;;;;;;;0.00;0.00;;;13.50;99.90;;;;;;5044099;28;20227;-70
2022/05/23 00:22:00;;;;;;;0.00;0.00;;;;;;;;;;5042990;28;20261;-70
2022/05/23 00:24:27;;;;;;;0.00;0.00;;;13.40;99.90;;;;;;5045475;28;20204;-70
2022/05/23 00:26:53;;;;;;;0.00;0.00;;;13.40;99.90;;;;;;5046088;28;20206;-70
2022/05/23 00:29:20;;;;;;;0.00;0.00;;;13.30;99.90;;;;;;5044836;28;20230;-71
2022/05/23 00:37:20;;;;;;;0.00;0.00;;;13.30;99.90;;;;;;5045855;28;20277;-70
2022/05/23 00:39:47;;;;;;;0.10;0.10;;;13.20;99.90;;;;;;5040782;28;20255;-70
2022/05/23 00:45:04;;;;;;;0.00;0.00;;;13.30;99.90;;;;;;5045582;28;20276;-70
2022/05/23 00:47:33;;;;;;;0.00;0.00;;;;;;;;;;5044085;28;20203;-70
2022/05/23 00:50:01;;;;;;;0.00;0.00;;;;;;;;;;5046291;28;20223;-71
2022/05/23 00:52:32;;;;;;;0.00;0.00;;;;;;;;;;5045023;28;20310;-70
2022/05/23 00:55:01;;;;;;;0.00;0.00;;;;;;;;;;5042703;28;20200;-70
2022/05/23 00:57:30;;;;;;;0.00;0.00;;;;;;;;;;5038991;28;20209;-71
2022/05/23 00:59:59;;;;;;;0.00;0.00;;;;;;;;;;5045777;28;20223;-71
2022/05/23 01:02:29;;;;;;;0.03;0.03;;;;;;;;;;5047143;28;20203;-70
2022/05/23 01:04:56;;;;;;;0.00;0.00;;;;;;;;;;5045183;28;20211;-70
2022/05/23 01:07:24;;;;;;;0.00;0.00;;;;;;;;;;5046182;28;20245;-70
2022/05/23 01:09:53;;;;;;;0.00;0.00;;;;;;;;;;5044486;28;20223;-70
2022/05/23 01:12:21;;;;;;;0.00;0.00;;;;;;;;;;5044945;28;20723;-70
2022/05/23 01:14:50;;;;;;;0.07;0.07;;;;;;;;;;5045886;28;20199;-70
2022/05/23 01:17:19;;;;;;;0.00;0.00;;;;;;;;;;5047248;28;20225;-71
2022/05/23 01:19:46;;;;;;;0.00;0.00;;;;;;;;;;5045233;28;20222;-71
2022/05/23 01:22:18;;;;;;;0.20;0.00;;;;;;;;;;5046892;28;20191;-70
2022/05/23 01:24:49;;;;;;;0.00;0.00;;;;;;;;;;5041707;28;20227;-71
2022/05/23 01:27:19;;;;;;;0.00;0.00;;;;;;;;;;5042324;28;20208;-71
2022/05/23 01:29:47;;;;;;;0.00;0.00;;;;;;;;;;5045325;28;20410;-70
2022/05/23 01:32:15;;;;;;;0.00;0.00;;;;;;;;;;5045574;28;20300;-70
2022/05/23 01:34:49;;;;;;;0.00;0.00;;;;;;;;;;5040195;28;20203;-71
2022/05/23 01:37:20;;;;;;;0.00;0.00;;;;;;;;;;5044047;28;20253;-70
2022/05/23 01:40:11;;;;;;;0.10;0.10;;;;;;;;;;5043864;28;20334;-70
2022/05/23 01:42:57;;;;;;;0.00;0.00;;;;;;;;;;5044467;28;20210;-70
2022/05/23 01:45:26;;;;;;;0.00;0.00;;;;;;;;;;5037851;28;20207;-70
2022/05/23 01:47:54;;;;;;;0.10;0.10;;;;;;;;;;5044640;28;20196;-70
2022/05/23 01:50:23;;;;;;;0.00;0.00;;;;;;;;;;5044966;28;20218;-70
2022/05/23 01:53:05;;;;;;;0.10;0.10;;;;;;;;;;5043814;28;20226;-70
2022/05/23 01:55:40;;;;;;;0.00;0.00;;;;;;;;;;5042193;28;20203;-70
2022/05/23 02:01:16;;;;;;;0.10;0.10;;;;;;;;;;5045076;28;20272;-70
2022/05/23 02:03:51;;;;;;;0.00;0.00;;;;;;;;;;5044358;28;20199;-70
2022/05/23 02:06:19;;;;;;;0.00;0.00;;;;;;;;;;5044308;28;20661;-70
2022/05/23 02:08:50;;;;;;;0.10;0.10;;;;;;;;;;5044825;28;20287;-70
2022/05/23 02:11:20;;;;;;;0.00;0.00;;;;;;;;;;5044692;28;20226;-70
2022/05/23 02:13:48;;;;;;;0.00;0.00;;;13.20;99.90;;;;;;5044708;28;20203;-70
2022/05/23 02:16:27;;;;;;;0.00;0.00;;;12.10;99.90;;;;;;5044632;28;20339;-69
2022/05/23 02:19:00;;;;;;;0.00;0.00;;;12.00;99.90;;;;;;5045578;28;20191;-70
2022/05/23 02:21:27;;;;;;;0.00;0.00;;;11.90;99.90;;;;;;5044742;28;20294;-70
2022/05/23 02:23:55;;;;;;;0.00;0.00;;;11.90;99.90;;;;;;5045557;28;20227;-70
2022/05/23 02:26:22;;;;;;;0.00;0.00;;;11.90;99.90;;;;;;5043445;28;20571;-70
2022/05/23 02:28:58;;;;;;;0.00;0.00;;;11.90;99.90;;;;;;5044646;28;20203;-70
2022/05/23 02:31:28;;;;;;;0.00;0.00;;;11.90;99.90;;;;;;5043015;28;20203;-70
2022/05/23 02:34:07;;;;;;;0.00;0.00;;;11.80;99.90;;;;;;5043723;28;20207;-70
2022/05/23 02:36:38;;;;;;;0.00;0.00;;;11.80;99.90;;;;;;5043125;28;20227;-70
2022/05/23 02:39:06;;;;;;;0.00;0.00;;;11.70;99.90;;;;;;5044045;28;20241;-70
2022/05/23 02:41:35;;;;;;;0.00;0.00;;;;;;;;;;5041479;28;20204;-70
2022/05/23 02:44:05;;;;;;;0.00;0.00;;;11.70;99.90;;;;;;5041228;28;20203;-70
2022/05/23 02:46:33;;;;;;;0.00;0.00;;;;;;;;;;5042277;28;20298;-70
2022/05/23 02:49:06;;;;;;;0.00;0.00;;;;;;;;;;5038229;28;20196;-70
2022/05/23 02:51:34;;;;;;;0.00;0.00;;;;;;;;;;5043064;28;20291;-70
2022/05/23 02:54:06;;;;;;;0.00;0.00;;;;;;;;;;5043916;28;20226;-70
2022/05/23 02:56:36;;;;;;;0.00;0.00;;;;;;;;;;5043092;28;20290;-70
2022/05/23 02:59:05;;;;;;;0.00;0.00;;;;;;;;;;5042314;28;20199;-70
2022/05/23 03:01:33;;;;;;;0.00;0.00;;;;;;;;;;5043768;28;20207;-70
2022/05/23 03:04:00;;;;;;;0.00;0.00;;;;;;;;;;5043434;28;20183;-70
2022/05/23 03:06:27;;;;;;;0.00;0.00;;;;;;;;;;5041655;28;20203;-70
2022/05/23 03:08:55;;;;;;;0.00;0.00;;;;;;;;;;5044326;28;20238;-70
2022/05/23 03:11:23;;;;;;;0.00;0.00;;;;;;;;;;5041461;28;20246;-70
2022/05/23 03:13:50;;;;;;;0.00;0.00;;;;;;;;;;5043540;28;20227;-70
2022/05/23 03:16:19;;;;;;;0.03;0.03;;;;;;;;;;5041837;28;20253;-70
2022/05/23 03:18:46;;;;;;;0.00;0.00;;;;;;;;;;5041505;28;20249;-70
2022/05/23 03:26:58;;;;;;;0.00;0.00;;;;;;;;;;5041656;28;20787;-70
2022/05/23 03:27:00;;;;;;;0.10;0.10;;;;;;;;;;5040036;28;20268;-70
2022/05/23 03:29:34;;;;;;;0.00;0.00;;;;;;;;;;5042392;28;20226;-70
2022/05/23 03:32:03;;;;;;;0.00;0.00;;;;;;;;;;5043663;28;20222;-70
2022/05/23 03:34:30;;;;;;;0.00;0.00;;;;;;;;;;5042047;28;20314;-70
2022/05/23 03:36:58;;;;;;;0.00;0.00;;;;;;;;;;5039267;28;20221;-70
2022/05/23 03:39:26;;;;;;;0.00;0.00;;;;;;;;;;5040968;28;20234;-70
2022/05/23 03:41:53;;;;;;;0.10;0.10;;;;;;;;;;5038033;28;20684;-70
2022/05/23 03:44:21;;;;;;;0.00;0.00;;;;;;;;;;5046613;28;20577;-71
2022/05/23 03:46:48;;;;;;;0.00;0.00;;;;;;;;;;5045468;28;20195;-70
2022/05/23 03:49:17;;;;;;;0.00;0.00;;;;;;;;;;5047210;28;20205;-70
2022/05/23 03:51:45;;;;;;;0.10;0.10;;;;;;;;;;5042651;28;20855;-71
2022/05/23 03:54:12;;;;;;;0.00;0.00;;;;;;;;;;5045354;28;20310;-70
2022/05/23 03:56:42;;;;;;;0.00;0.00;;;;;;;;;;5045777;28;20225;-70
2022/05/23 03:59:10;;;;;;;0.00;0.00;;;;;;;;;;5047669;28;20272;-70
2022/05/23 04:01:45;;;;;;;0.00;0.00;;;;;;;;;;5046025;28;20199;-70
2022/05/23 04:04:22;;;;;;;0.00;0.00;;;;;;;;;;5047194;28;20191;-70
2022/05/23 04:07:13;;;;;;;0.00;0.00;;;;;;;;;;5027570;28;20210;-70
2022/05/23 04:09:56;;;;;;;0.00;0.00;;;;;;;;;;5046633;28;20763;-70
2022/05/23 04:12:28;;;;;;;0.00;0.00;;;;;;;;;;5046732;28;20332;-71
2022/05/23 04:14:55;;;;;;;0.00;0.00;;;;;;;;;;5046669;28;20198;-70
2022/05/23 04:17:27;;;;;;;0.00;0.00;;;;;;;;;;5046849;28;20218;-70
2022/05/23 04:19:56;;;;;;;0.00;0.00;;;;;;;;;;5045758;28;20226;-71
2022/05/23 04:22:25;;;;;;;0.00;0.00;;;;;;;;;;5045860;28;20199;-71
2022/05/23 04:25:05;;;;;;;0.07;0.07;;;;;;;;;;5046069;28;20206;-71
2022/05/23 04:27:33;;;;;;;0.00;0.00;;;;;;;;;;5045787;28;20288;-70
2022/05/23 04:30:00;;;;;;;0.00;0.00;;;;;;;;;;5045887;28;20215;-70
2022/05/23 04:35:25;;;;;;;0.00;0.00;;;;;;;;;;5058453;28;20195;-70
2022/05/23 04:37:54;;;;;;;0.00;0.00;;;;;;;;;;5052744;28;20261;-70
2022/05/23 04:40:30;;;;;;;0.00;0.00;;;;;;;;;;5076128;28;20222;-70
2022/05/23 04:42:58;;;;;;;0.00;0.00;;;;;;;;;;5045004;28;20707;-70
2022/05/23 04:45:26;;;;;;;0.00;0.00;;;;;;;;;;5044232;28;20553;-70
2022/05/23 04:51:02;;;;;;;0.00;0.00;;;;;;;;;;5005037;28;20211;-70
2022/05/23 04:53:42;;;;;;;0.00;0.00;;;;;;;;;;5043556;28;20222;-70
2022/05/23 04:56:20;;;;;;;0.00;0.00;;;;;;;;;;5042395;28;20325;-70
2022/05/23 04:58:50;;;;;;;0.00;0.00;;;;;;;;;;5039950;28;20290;-70
2022/05/23 05:01:17;;;;;;;0.00;0.00;;;;;;;;;;5044482;28;20246;-70
2022/05/23 05:03:45;;;;;;;0.00;0.00;;;;;;;;;;5044428;28;20199;-71
2022/05/23 05:06:13;;;;;;;0.00;0.00;;;;;;;;;;5045567;28;20278;-69
2022/05/23 05:08:41;;;;;;;0.00;0.00;;;;;;;;;;5038831;28;20611;-70
2022/05/23 05:11:08;;;;;;;0.00;0.00;;;;;;;;;;5044514;28;20223;-70
2022/05/23 05:13:36;;;;;;;0.00;0.00;;;;;;;;;;5040871;28;20223;-71
2022/05/23 05:16:05;;;;;;;0.00;0.00;;;;;;;;;;5038509;28;20200;-68
2022/05/23 05:18:37;;;;;;;0.00;0.00;;;;;;;;;;5044920;28;20262;-69
2022/05/23 05:21:24;;;;;;;0.00;0.00;;;;;;;;;;5045872;28;20226;-69
2022/05/23 05:24:10;;;;;;;0.00;0.00;;;;;;;;;;5044038;28;20205;-69
2022/05/23 05:26:42;;;;;;;0.00;0.00;;;;;;;;;;5044198;28;20199;-69
2022/05/23 05:29:12;;;;;;;0.00;0.00;;;;;;;;;;5045012;28;20203;-69
2022/05/23 05:31:46;;;;;;;0.00;0.00;;;;;;;;;;5042453;28;20209;-69
2022/05/23 05:34:15;;;;;;;0.00;0.00;;;;;;;;;;4995776;28;1298325;-69
2022/05/23 05:36:46;;;;;;;0.00;0.00;;;;;;;;;;5041852;28;20231;-69
2022/05/23 05:39:15;;;;;;;0.00;0.00;;;;;;;;;;5047299;28;20191;-70
2022/05/23 05:41:45;;;;;;;0.00;0.00;;;;;;;;;;5043460;28;20211;-69
2022/05/23 05:44:15;;;;;;;0.00;0.00;;;;;;;;;;5043986;28;20286;-69
2022/05/23 05:46:48;;;;;;;0.00;0.00;;;;;;;;;;5043427;28;20206;-69
2022/05/23 05:49:22;;;;;;;0.00;0.00;;;;;;;;;;5043214;28;20246;-69
2022/05/23 05:51:53;;;;;;;0.00;0.00;;;11.50;99.90;;;;;;5045225;28;20213;-69
2022/05/23 05:54:29;;;;;;;0.00;0.00;;;18.00;99.90;;;;;;5056593;28;20215;-69
2022/05/23 05:57:13;;;;;;;0.00;0.00;;;18.00;99.90;;;;;;5044754;28;20214;-69
2022/05/23 05:59:41;;;;;;;0.00;0.00;;;;;;;;;;5044489;28;20215;-70
2022/05/23 06:02:09;;;;;;;0.00;0.00;;;;;;;;;;5045396;28;20290;-69
2022/05/23 06:04:37;;;;;;;0.00;0.00;;;;;;;;;;5042760;28;20198;-69
2022/05/23 06:12:54;;;;;;;0.00;0.00;;;;;;;;;;5044142;28;20260;-69
2022/05/23 06:15:40;;;;;;;0.00;0.00;;;;;;;;;;5044904;28;20294;-69
2022/05/23 06:18:09;;;;;;;0.00;0.00;;;;;;;;;;5043404;28;20281;-69
2022/05/23 06:20:38;;;;;;;0.00;0.00;;;;;;;;;;5046304;28;20219;-69
2022/05/23 06:23:07;;;;;;;0.00;0.00;;;;;;;;;;5046466;28;20295;-69
2022/05/23 06:25:38;;;;;;;0.00;0.00;;;;;;;;;;5045073;28;20269;-69
2022/05/23 06:28:11;;;;;;;0.00;0.00;;;;;;;;;;5045280;28;20259;-70
2022/05/23 06:30:38;;;;;;;0.00;0.00;;;;;;;;;;5040024;28;20240;-69
2022/05/23 06:33:09;;;;;;;0.00;0.00;;;;;;;;;;5040621;28;20632;-69
2022/05/23 06:35:48;;;;;;;0.00;0.00;;;;;;;;;;5038742;28;20219;-69
2022/05/23 06:38:17;;;;;;;0.00;0.00;;;;;;;;;;5045308;28;20191;-69
2022/05/23 06:40:50;;;;;;;0.00;0.00;;;;;;;;;;5046353;28;20226;-69
2022/05/23 06:43:36;;;;;;;0.00;0.00;;;;;;;;;;5042743;28;20222;-69
2022/05/23 06:46:21;;;;;;;0.00;0.00;;;;;;;;;;5041841;28;20220;-70
2022/05/23 06:49:07;;;;;;;0.00;0.00;;;;;;;;;;5043883;28;20210;-69
2022/05/23 06:51:55;;;;;;;0.00;0.00;;;;;;;;;;5010837;28;20369;-69
2022/05/23 06:54:32;;;;;;;0.00;0.00;;;;;;;;;;5059761;28;20300;-70
2022/05/23 06:57:05;;;;;;;0.00;0.00;;;;;;;;;;5044511;23;20217;-81
2022/05/23 06:59:33;;;;;;;0.00;0.00;;;;;;;;;;5001331;28;20233;-80
2022/05/23 07:02:01;;;;;;;0.00;0.00;;;;;;;;;;4988470;28;20201;-81
2022/05/23 07:13:29;;;;;;;0.00;0.00;;;;;;;;;;4986150;28;20226;-80
2022/05/23 07:15:57;;;;;;;0.00;0.00;;;;;;;;;;4989130;28;20248;-80
2022/05/23 07:18:26;;;;;;;0.00;0.00;;;;;;;;;;4985815;28;20200;-81
2022/05/23 07:20:55;;;;;;;0.00;0.00;;;;;;;;;;4982105;28;20244;-80
2022/05/23 07:23:30;;;;;;;0.00;0.00;;;;;;;;;;4985790;28;20287;-81
2022/05/23 07:26:06;;;;;;;0.00;0.00;;;;;;;;;;4984150;28;20201;-81
2022/05/23 07:28:49;;;;;;;0.00;0.00;;;;;;;;;;4980050;28;20666;-80
2022/05/23 07:31:19;;;;;;;0.00;0.00;;;;;;;;;;4983817;28;20228;-80
2022/05/23 07:33:47;;;;;;;0.00;0.00;;;;;;;;;;4985570;28;20217;-80
2022/05/23 07:36:20;;;;;;;0.00;0.00;;;;;;;;;;4983852;28;20206;-81
2022/05/23 07:38:49;;;;;;;0.00;0.00;;;;;;;;;;4984641;28;20205;-81
2022/05/23 07:41:39;;;;;;;0.00;0.00;;;;;;;;;;4984809;28;20241;-81
2022/05/23 07:44:08;;;;;;;0.00;0.00;;;;;;;;;;4985383;28;20198;-80
2022/05/23 07:46:35;;;;;;;0.00;0.00;;;;;;;;;;4978789;28;20201;-80
2022/05/23 07:49:04;;;;;;;0.00;0.00;;;;;;;;;;4983634;28;20198;-80
2022/05/23 07:51:32;;;;;;;0.00;0.00;;;;;;;;;;4983219;28;20208;-80
2022/05/23 08:02:44;;;;;;;0.00;0.00;;;;;;;;;;4985380;28;20189;-80
2022/05/23 08:05:20;;;;;;;0.00;0.00;;;;;;;;;;4978191;28;20193;-81
2022/05/23 08:07:51;;;;;;;0.00;0.00;;;;;;;;;;4983430;28;20212;-80
2022/05/23 08:10:20;;;;;;;0.00;0.00;;;;;;;;;;4983917;28;20378;-80
2022/05/23 08:12:50;;;;;;;0.00;0.00;;;;;;;;;;4984388;28;20248;-80
2022/05/23 08:15:18;;;;;;;0.00;0.00;;;;;;;;;;4978385;28;20218;-80
2022/05/23 08:17:48;;;;;;;0.00;0.00;;;;;;;;;;4983552;28;20209;-80
2022/05/23 08:20:31;;;;;;;0.00;0.00;;;;;;;;;;4984120;28;20230;-79
2022/05/23 08:22:59;;;;;;;0.00;0.00;;;18.90;99.90;;;;;;4984923;28;20213;-80
2022/05/23 08:25:33;;;;;;;0.00;0.00;;;;;;;;;;4983421;28;20252;-80
2022/05/23 08:28:02;;;;;;;0.00;0.00;;;;;;;;;;4984391;28;20212;-81
2022/05/23 08:30:30;;;;;;;0.00;0.00;;;;;;;;;;4986711;28;20364;-81
2022/05/23 08:33:23;;;;;;;0.00;0.00;;;;;;;;;;4985547;28;20247;-81
2022/05/23 08:35:55;;;;;;;0.00;0.00;;;;;;;;;;4985081;28;20210;-80
2022/05/23 08:38:24;;;;;;;0.00;0.00;;;19.50;99.90;;;;;;4986044;28;20758;-80
2022/05/23 08:41:19;;;;;;;0.00;0.00;;;19.80;99.90;;;;;;4985311;28;20214;-79
2022/05/23 08:44:05;;;;;;;0.00;0.00;;;19.90;99.90;;;;;;4982617;28;20304;-81
2022/05/23 08:46:44;;;;;;;0.00;0.00;;;20.00;99.90;;;;;;4985866;28;20237;-80
2022/05/23 08:49:21;;;;;;;0.00;0.00;;;20.20;99.90;;;;;;4986377;28;20244;-80
2022/05/23 08:51:56;;;;;;;0.00;0.00;;;;;;;;;;4983886;28;20236;-80
2022/05/23 08:54:26;;;;;;;0.00;0.00;;;;;;;;;;5000869;28;20221;-80
2022/05/23 08:57:18;;;;;;;0.00;0.00;;;;;;;;;;4986464;28;20224;-80
2022/05/23 08:59:50;;;;;;;0.00;0.00;;;;;;;;;;4980345;28;20247;-77
2022/05/23 09:02:27;;;;;;;0.00;0.00;;;;;;;;;;4986084;28;20201;-81
2022/05/23 09:04:59;;;;;;;0.00;0.00;;;;;;;;;;4985514;28;20284;-79
2022/05/23 09:07:29;;;;;;;0.00;0.00;;;;;;;;;;4985023;28;20209;-81
2022/05/23 09:09:59;;;;;;;0.00;0.00;;;;;;;;;;4985225;28;20296;-80
2022/05/23 09:12:27;;;;;;;0.00;0.00;;;;;;;;;;5002303;28;20295;-80
2022/05/23 09:14:56;;;;;;;0.00;0.00;;;;;;;;;;4988267;28;20225;-81
2022/05/23 09:17:25;;;;;;;0.00;0.00;;;;;;;;;;4989340;28;20686;-82
2022/05/23 09:20:00;;;;;;;0.00;0.00;;;;;;;;;;4992098;28;20225;-80
2022/05/23 09:22:33;;;;;;;0.00;0.00;;;;;;;;;;4985209;28;20282;-79
2022/05/23 09:25:02;;;;;;;0.00;0.00;;;;;;;;;;4985136;28;20199;-80
2022/05/23 09:27:34;;;;;;;0.00;0.00;;;;;;;;;;4985067;28;20205;-80
2022/05/23 09:30:04;;;;;;;0.00;0.00;;;;;;;;;;4985426;28;20236;-81
2022/05/23 09:32:36;;;;;;;0.00;0.00;;;;;;;;;;4984652;28;20197;-79
2022/05/23 09:35:05;;;;;;;0.00;0.00;;;;;;;;;;4986164;28;20232;-79
2022/05/23 09:37:42;;;;;;;0.00;0.00;;;;;;;;;;4992122;28;20220;-80
2022/05/23 09:40:13;;;;;;;0.00;0.00;;;;;;;;;;4984597;28;20274;-80
2022/05/23 09:48:15;;;;;;;0.00;0.00;;;;;;;;;;4985424;28;20339;-80
2022/05/23 09:50:44;;;;;;;0.00;0.00;;;;;;;;;;4985913;28;20236;-80
2022/05/23 09:53:16;;;;;;;0.00;0.00;;;;;;;;;;4993098;28;20292;-80
2022/05/23 09:55:45;;;;;;;0.00;0.00;;;;;;;;;;4991331;28;20236;-80
2022/05/23 09:58:12;;;;;;;0.00;0.00;;;;;;;;;;4989819;28;20260;-81
2022/05/23 10:00:55;;;;;;;0.00;0.00;;;;;;;;;;4985416;28;20225;-79
2022/05/23 10:03:25;;;;;;;0.00;0.00;;;;;;;;;;4986424;28;20224;-80
2022/05/23 10:06:04;;;;;;;0.00;0.00;;;;;;;;;;4989573;28;20209;-79
2022/05/23 10:08:33;;;;;;;0.00;0.00;;;23.20;99.90;;;;;;4990956;28;20220;-80
2022/05/23 10:11:02;;;;;;;0.00;0.00;;;;;;;;;;4990627;28;20293;-80
2022/05/23 10:13:35;;;;;;;0.00;0.00;;;;;;;;;;4993675;28;20213;-81
2022/05/23 10:16:12;;;;;;;0.00;0.00;;;;;;;;;;4990649;28;20296;-81
2022/05/23 10:18:46;;;;;;;0.00;0.00;;;;;;;;;;4990722;28;20205;-80
2022/05/23 10:21:21;;;;;;;0.00;0.00;;;;;;;;;;4993644;28;20240;-80
2022/05/23 10:23:59;;;;;;;0.00;0.00;;;;;;;;;;4990460;28;20291;-81
2022/05/23 10:26:27;;;;;;;0.00;0.00;;;;;;;;;;4990492;28;20209;-81
2022/05/23 10:28:58;;;;;;;0.00;0.00;;;;;;;;;;4993310;28;20209;-81
2022/05/23 10:31:31;;;;;;;0.00;0.00;;;;;;;;;;4991460;28;20229;-80
2022/05/23 10:34:01;;;;;;;0.00;0.00;;;;;;;;;;4998975;28;20205;-80
2022/05/23 10:36:30;;;;;;;0.00;0.00;;;;;;;;;;5003721;28;20300;-80
2022/05/23 10:42:10;;;;;;;0.00;0.00;;;;;;;;;;5000421;28;20196;-78
2022/05/23 10:44:51;;;;;;;0.00;0.00;;;;;;;;;;5003126;28;20259;-81
2022/05/23 10:47:24;;;;;;;0.00;0.00;;;;;;;;;;5004358;28;20207;-79
2022/05/23 10:49:54;;;;;;;0.00;0.00;;;;;;;;;;4991157;28;20320;-79
2022/05/23 10:52:30;;;;;;;0.00;0.00;;;;;;;;;;4987767;28;20271;-78
2022/05/23 10:55:03;;;;;;;0.00;0.00;;;;;;;;;;4985178;28;20220;-79
2022/05/23 10:57:34;;;;;;;0.00;0.00;;;;;;;;;;4987593;28;20310;-81
2022/05/23 11:00:06;;;;;;;0.00;0.00;;;;;;;;;;4989281;28;20217;-79
2022/05/23 11:02:40;;;;;;;0.00;0.00;;;;;;;;;;4987043;28;20201;-80
2022/05/23 11:05:13;;;;;;;0.00;0.00;;;;;;;;;;4989786;28;20197;-80
2022/05/23 11:07:46;;;;;;;0.00;0.00;;;;;;;;;;4980294;28;20209;-80
2022/05/23 11:10:20;;;;;;;0.00;0.00;;;;;;;;;;4991648;28;20229;-81
2022/05/23 11:12:53;;;;;;;0.00;0.00;;;;;;;;;;4988944;28;20224;-80
2022/05/23 11:15:37;;;;;;;0.00;0.00;;;;;;;;;;4991499;28;20260;-79
2022/05/23 11:18:09;;;;;;;0.00;0.00;;;;;;;;;;4986779;28;20202;-80
2022/05/23 11:20:39;;;;;;;0.00;0.00;;;;;;;;;;4987212;28;20217;-80
2022/05/23 11:23:12;;;;;;;0.00;0.00;;;;;;;;;;5000250;28;20210;-80
2022/05/23 11:25:41;;;;;;;0.00;0.00;;;;;;;;;;4985266;28;20255;-79
2022/05/23 11:33:49;;;;;;;0.00;0.00;;;;;;;;;;4983672;28;20212;-81
2022/05/23 11:36:32;;;;;;;0.00;0.00;;;;;;;;;;4980860;28;20248;-79
2022/05/23 11:38:59;;;;;;;0.00;0.00;;;24.00;99.90;;;;;;4988961;28;20232;-80
2022/05/23 11:41:39;;;;;;;0.00;0.00;;;23.90;99.90;;;;;;4987107;28;20268;-80
2022/05/23 11:44:31;;;;;;;0.00;0.00;;;24.00;99.90;;;;;;4988405;28;20201;-79
2022/05/23 11:47:06;;;;;;;0.00;0.00;;;24.10;99.90;;;;;;4983776;28;20201;-79
2022/05/23 11:49:45;;;;;;;0.00;0.00;;;24.30;99.90;;;;;;4987126;28;20229;-79
2022/05/23 11:52:24;;;;;;;0.00;0.00;;;24.40;99.90;;;;;;4986141;28;20205;-79
2022/05/23 11:54:52;;;;;;;0.00;0.00;;;24.50;99.90;;;;;;4989000;28;20227;-79
2022/05/23 11:57:33;;;;;;;0.00;0.00;;;24.60;99.90;;;;;;4984165;28;20240;-80
2022/05/23 12:00:06;;;;;;;0.00;0.00;;;24.70;99.90;;;;;;4987743;28;20314;-79
2022/05/23 12:02:40;;;;;;;0.00;0.00;;;24.80;99.90;;;;;;4986304;28;20197;-80
2022/05/23 12:05:14;;;;;;;0.00;0.00;;;24.80;99.90;;;;;;4989834;28;20212;-79
2022/05/23 12:08:01;;;;;;;0.00;0.00;;;24.90;99.90;;;;;;4981566;28;20287;-79
2022/05/23 12:10:53;;;;;;;0.00;0.00;;;25.00;99.90;;;;;;4987200;28;20723;-78
2022/05/23 12:13:39;;;;;;;0.00;0.00;;;24.90;99.90;;;;;;4983615;28;20201;-80
2022/05/23 12:16:42;;;;;;;0.00;0.00;;;24.90;99.90;;;;;;4996466;28;20217;-80
2022/05/23 12:19:32;;;;;;;0.00;0.00;;;24.90;99.90;;;;;;4993674;28;20243;-80
2022/05/23 12:22:21;;;;;;;0.00;0.00;;;24.90;99.90;;;;;;5006482;28;20197;-81
2022/05/23 12:25:24;;;;;;;0.00;0.00;;;24.80;99.90;;;;;;4998188;28;20201;-82
2022/05/23 12:28:10;;;;;;;0.00;0.00;;;24.80;99.90;;;;;;5001707;28;20208;-82
2022/05/23 12:30:44;;;;;;;0.00;0.00;;;24.70;99.90;;;;;;4992222;28;20225;-82
2022/05/23 12:33:15;;;;;;;0.00;0.00;;;24.70;99.90;;;;;;4999366;28;20193;-79
2022/05/23 12:35:53;;;;;;;0.00;0.00;;;24.70;99.90;;;;;;4991513;28;20217;-82
2022/05/23 12:38:57;;;;;;;0.00;0.00;;;24.70;99.90;;;;;;5000614;28;20275;-81
2022/05/23 12:41:47;;;;;;;0.00;0.00;;;24.70;99.90;;;;;;4969148;28;20469;-80
2022/05/23 12:44:52;;;;;;;0.00;0.00;;;24.70;99.90;;;;;;4986001;28;20201;-80
2022/05/23 12:47:49;;;;;;;0.00;0.00;;;24.70;99.90;;;;;;4995617;28;20194;-81
2022/05/23 12:50:31;;;;;;;0.00;0.00;;;24.70;99.90;;;;;;5000316;28;20221;-82
2022/05/23 12:53:30;;;;;;;0.00;0.00;;;24.70;99.90;;;;;;4991332;28;20725;-79
2022/05/23 12:56:27;;;;;;;0.00;0.00;;;24.60;99.90;;;;;;5000342;28;20233;-79
2022/05/23 12:59:13;;;;;;;0.00;0.00;;;24.50;99.90;;;;;;4991599;28;20209;-80
2022/05/23 13:01:44;;;;;;;0.00;0.00;;;24.60;99.90;;;;;;4991735;28;20194;-80
2022/05/23 13:04:25;;;;;;;0.00;0.00;;;24.60;99.90;;;;;;4992968;28;20213;-80
2022/05/23 13:07:00;;;;;;;0.00;0.00;;;24.70;99.90;;;;;;4988720;28;20205;-81
2022/05/23 13:09:33;;;;;;;0.00;0.00;;;;;;;;;;4981724;28;20271;-81
2022/05/23 13:12:07;;;;;;;0.00;0.00;;;;;;;;;;4991793;28;20289;-81
2022/05/23 13:15:02;;;;;;;0.00;0.00;;;;;;;;;;4986844;28;20311;-80
2022/05/23 13:17:46;;;;;;;0.00;0.00;;;;;;;;;;4987880;28;20228;-81
2022/05/23 13:23:24;;;;;;;0.00;0.00;;;;;;;;;;4985856;28;20197;-81
2022/05/23 13:25:52;;;;;;;0.00;0.00;;;;;;;;;;4983107;28;20212;-80
2022/05/23 13:28:21;;;;;;;0.00;0.00;;;;;;;;;;5003919;28;20258;-81
2022/05/23 13:30:50;;;;;;;0.00;0.00;;;;;;;;;;4989149;28;20229;-81
2022/05/23 13:33:28;;;;;;;0.00;0.00;;;;;;;;;;4987112;28;20224;-82
2022/05/23 13:36:02;;;;;;;0.00;0.00;;;;;;;;;;4987380;28;20233;-81
2022/05/23 13:38:31;;;;;;;0.00;0.00;;;;;;;;;;4993395;28;20212;-81
2022/05/23 13:41:01;;;;;;;0.00;0.00;;;;;;;;;;4990297;28;20331;-81
2022/05/23 13:43:34;;;;;;;0.00;0.00;;;;;;;;;;5004245;28;20307;-81
2022/05/23 13:46:13;;;;;;;0.00;0.00;;;;;;;;;;4988680;28;20208;-82
2022/05/23 13:48:56;;;;;;;0.00;0.00;;;;;;;;;;4990757;28;20200;-82
2022/05/23 13:51:30;;;;;;;0.00;0.00;;;;;;;;;;4996050;28;20211;-81
2022/05/23 13:54:02;;;;;;;0.00;0.00;;;;;;;;;;4995594;28;20202;-82
2022/05/23 13:56:43;;;;;;;0.00;0.00;;;;;;;;;;4986407;28;20221;-82
2022/05/23 14:05:21;;;;;;;0.00;0.00;;;;;;;;;;4980637;28;20292;-80
2022/05/23 14:07:51;;;;;;;0.00;0.00;;;;;;;;;;4995511;28;20240;-82
2022/05/23 14:10:20;;;;;;;0.00;0.00;;;;;;;;;;4993498;28;20218;-80
2022/05/23 14:12:54;;;;;;;0.00;0.00;;;;;;;;;;4995596;28;20643;-78
2022/05/23 14:15:33;;;;;;;0.00;0.00;;;;;;;;;;4993977;28;20221;-78
2022/05/23 14:18:01;;;;;;;0.00;0.00;;;;;;;;;;4989218;28;20202;-78
2022/05/23 14:20:33;;;;;;;0.00;0.00;;;;;;;;;;4989616;28;20221;-77
2022/05/23 14:23:02;;;;;;;0.00;0.00;;;;;;;;;;4988211;28;20229;-78
2022/05/23 14:25:32;;;;;;;0.00;0.00;;;;;;;;;;5003409;28;20300;-78
2022/05/23 14:28:06;;;;;;;0.00;0.00;;;;;;;;;;4988811;28;20209;-80
2022/05/23 14:30:37;;;;;;;0.00;0.00;;;;;;;;;;4983095;28;20248;-81
2022/05/23 14:33:07;;;;;;;0.00;0.00;;;;;;;;;;4999112;28;20252;-79
2022/05/23 14:35:37;;;;;;;0.00;0.00;;;;;;;;;;4985448;28;20287;-81
2022/05/23 14:38:07;;;;;;;0.00;0.00;;;;;;;;;;4989079;28;20312;-81
2022/05/23 14:40:39;;;;;;;0.00;0.00;;;;;;;;;;4995186;28;20221;-81
2022/05/23 14:43:09;;;;;;;0.00;0.00;;;;;;;;;;4987698;28;20209;-77
2022/05/23 14:45:49;;;;;;;0.00;0.00;;;;;;;;;;4988167;28;20202;-76
2022/05/23 14:48:24;;;;;;;0.00;0.00;;;;;;;;;;4985560;28;20219;-76
2022/05/23 14:50:56;;;;;;;0.00;0.00;;;;;;;;;;4987700;28;20253;-76
2022/05/23 14:56:18;;;;;;;0.00;0.00;;;;;;;;;;4986662;28;20228;-81
2022/05/23 15:01:32;;;;;;;0.00;0.00;;;;;;;;;;4986543;28;20807;-81
2022/05/23 15:04:01;;;;;;;0.00;0.00;;;;;;;;;;4988227;28;20741;-81
2022/05/23 15:06:29;;;;;;;0.00;0.00;;;;;;;;;;4985873;28;20280;-77
2022/05/23 15:08:59;;;;;;;0.00;0.00;;;;;;;;;;4982820;28;20201;-80
2022/05/23 15:11:30;;;;;;;0.00;0.00;;;;;;;;;;4986090;28;20300;-79
2022/05/23 15:14:00;;;;;;;0.00;0.00;;;;;;;;;;4981588;28;20206;-80
2022/05/23 15:16:29;;;;;;;0.00;0.00;;;;;;;;;;4984796;28;20737;-80
2022/05/23 15:19:16;;;;;;;0.00;0.00;;;;;;;;;;4988526;28;20200;-81
2022/05/23 15:21:45;;;;;;;0.00;0.00;;;;;;;;;;4985485;28;20256;-80
2022/05/23 15:24:13;;;;;;;0.00;0.00;;;;;;;;;;4995446;28;20193;-80
2022/05/23 15:26:42;;;;;;;0.00;0.00;;;;;;;;;;4994405;28;20204;-80
2022/05/23 15:29:09;;;;;;;0.00;0.00;;;;;;;;;;4991320;28;20229;-80
2022/05/23 15:31:40;;;;;;;0.00;0.00;;;;;;;;;;4985628;28;20211;-79
2022/05/23 15:34:09;;;;;;;0.00;0.00;;;;;;;;;;5005109;28;20201;-78
2022/05/23 15:36:38;;;;;;;0.00;0.00;;;;;;;;;;4985494;28;20243;-79
2022/05/23 15:39:09;;;;;;;0.00;0.00;;;;;;;;;;4993123;28;20311;-77
2022/05/23 15:41:40;;;;;;;0.00;0.00;;;;;;;;;;4995677;28;20200;-77
2022/05/23 15:44:08;;;;;;;0.00;0.00;;;;;;;;;;4984948;28;20197;-78
2022/05/23 15:46:35;;;;;;;0.00;0.00;;;;;;;;;;4992317;28;20288;-78
2022/05/23 15:49:02;;;;;;;0.00;0.00;;;;;;;;;;4997938;28;20204;-79
2022/05/23 15:51:33;;;;;;;0.00;0.00;;;;;;;;;;4999237;28;20201;-79
2022/05/23 15:54:01;;;;;;;0.00;0.00;;;;;;;;;;4997147;28;20193;-78
2022/05/23 15:56:28;;;;;;;0.00;0.00;;;;;;;;;;4992317;28;20220;-78
2022/05/23 15:58:56;;;;;;;0.00;0.00;;;;;;;;;;4997763;28;20288;-80
2022/05/23 16:01:24;;;;;;;0.00;0.00;;;;;;;;;;4996534;28;20212;-81
2022/05/23 16:03:51;;;;;;;0.00;0.00;;;;;;;;;;4994590;28;20197;-81
2022/05/23 16:06:18;;;;;;;0.00;0.00;;;;;;;;;;4995681;28;20197;-81